createdAt,value
2018-12-13T00:02:25.398Z,97046.19
2018-12-13T00:05:08.066Z,97046.31
2018-12-13T00:07:50.275Z,97050.20
2018-12-13T00:10:40.483Z,97048.83
2018-12-13T00:13:25.119Z,97044.17
2018-12-13T00:16:02.082Z,97039.09
2018-12-13T00:18:34.962Z,97036.43
2018-12-13T00:21:10.380Z,97026.20
2018-12-13T00:23:45.624Z,97020.16
2018-12-13T00:26:18.496Z,97015.02
2018-12-13T00:28:52.856Z,97013.28
2018-12-13T00:31:34.323Z,97004.36
2018-12-13T00:34:16.232Z,97008.20
2018-12-13T00:36:58.242Z,97007.45
2018-12-13T00:39:31.357Z,96995.00
2018-12-13T00:42:04.423Z,96994.45
2018-12-13T00:44:46.111Z,96994.82
2018-12-13T00:47:23.109Z,96992.92
2018-12-13T00:49:56.241Z,96988.38
2018-12-13T00:52:37.634Z,96987.26
2018-12-13T00:55:19.308Z,96985.53
2018-12-13T00:58:01.192Z,96982.11
2018-12-13T01:00:43.147Z,96984.60
2018-12-13T01:03:25.072Z,96980.83
2018-12-13T01:06:06.957Z,96981.05
2018-12-13T01:08:41.263Z,96977.03
2018-12-13T01:11:23.077Z,96982.77
2018-12-13T01:13:55.395Z,96983.98
2018-12-13T01:16:37.279Z,96981.97
2018-12-13T01:19:10.691Z,96980.88
2018-12-13T01:21:53.283Z,96981.02
2018-12-13T01:24:35.118Z,96979.17
2018-12-13T01:27:10.696Z,96984.53
2018-12-13T01:29:43.444Z,96983.73
2018-12-13T01:32:14.599Z,96980.42
2018-12-13T01:34:56.480Z,96972.38
2018-12-13T01:37:27.400Z,96975.11
2018-12-13T01:40:00.646Z,96969.93
2018-12-13T01:42:36.140Z,96971.34
2018-12-13T01:45:17.671Z,96970.02
2018-12-13T01:47:59.658Z,96973.08
2018-12-13T01:50:41.674Z,96976.80
2018-12-13T01:53:23.796Z,96976.09
2018-12-13T01:56:05.729Z,96971.97
2018-12-13T01:58:40.745Z,96965.52
2018-12-13T02:01:26.230Z,96969.20
2018-12-13T02:04:08.011Z,96958.66
2018-12-13T02:06:50.037Z,96951.80
2018-12-13T02:09:23.299Z,96945.30
2018-12-13T02:11:56.443Z,96943.88
2018-12-13T02:14:31.816Z,96942.36
2018-12-13T02:17:13.412Z,96939.03
2018-12-13T02:19:46.702Z,96934.73
2018-12-13T02:22:28.729Z,96923.26
2018-12-13T02:25:10.219Z,96912.15
2018-12-13T02:27:43.273Z,96908.70
2018-12-13T02:30:23.865Z,96907.05
2018-12-13T02:33:05.266Z,96900.53
2018-12-13T02:35:35.708Z,96898.27
2018-12-13T02:38:29.109Z,96896.83
2018-12-13T02:41:10.461Z,96890.33
2018-12-13T02:43:45.959Z,96894.83
2018-12-13T02:46:27.593Z,96885.83
2018-12-13T02:49:08.977Z,96885.61
2018-12-13T02:51:50.810Z,96880.83
2018-12-13T02:54:32.176Z,96876.20
2018-12-13T02:57:13.921Z,96871.56
2018-12-13T03:07:33.017Z,96855.94
2018-12-13T03:10:06.150Z,96853.87
2018-12-13T03:12:48.587Z,96847.30
2018-12-13T03:15:29.971Z,96850.27
2018-12-13T03:18:12.112Z,96849.95
2018-12-13T03:20:53.812Z,96849.92
2018-12-13T03:23:35.493Z,96843.86
2018-12-13T03:26:17.445Z,96839.94
2018-12-13T03:28:50.734Z,96839.34
2018-12-13T03:31:27.318Z,96840.66
2018-12-13T03:34:02.132Z,96835.69
2018-12-13T03:36:32.771Z,96834.28
2018-12-13T03:39:08.507Z,96827.42
2018-12-13T03:41:49.795Z,96831.82
2018-12-13T03:44:30.900Z,96823.20
2018-12-13T03:47:12.982Z,96820.53
2018-12-13T03:49:48.602Z,96816.34
2018-12-13T03:52:29.960Z,96821.63
2018-12-13T03:55:11.953Z,96817.27
2018-12-13T03:57:53.853Z,96816.27
2018-12-13T04:00:29.689Z,96816.42
2018-12-13T04:03:11.028Z,96819.74
2018-12-13T04:05:53.056Z,96817.51
2018-12-13T04:08:34.958Z,96812.38
2018-12-13T04:11:16.641Z,96812.55
2018-12-13T04:13:58.535Z,96809.41
2018-12-13T04:16:42.407Z,96810.94
2018-12-13T04:19:17.951Z,96807.05
2018-12-13T04:21:48.532Z,96811.64
2018-12-13T04:24:30.436Z,96804.99
2018-12-13T04:27:05.172Z,96802.64
2018-12-13T04:29:37.694Z,96808.82
2018-12-13T04:32:20.033Z,96799.56
2018-12-13T04:34:52.940Z,96797.18
2018-12-13T04:37:35.364Z,96797.14
2018-12-13T04:40:08.386Z,96791.81
2018-12-13T04:43:02.597Z,96798.84
2018-12-13T04:45:49.824Z,96791.87
2018-12-13T04:48:22.966Z,96787.55
2018-12-13T04:50:54.200Z,96793.48
2018-12-13T04:53:35.997Z,96787.03
2018-12-13T04:56:17.756Z,96785.80
2018-12-13T04:58:51.053Z,96782.91
2018-12-13T05:01:36.213Z,96782.83
2018-12-13T05:04:11.763Z,96776.16
2018-12-13T05:06:53.240Z,96774.94
2018-12-13T05:09:26.459Z,96766.14
2018-12-13T05:12:08.296Z,96767.77
2018-12-13T05:14:49.476Z,96764.14
2018-12-13T05:17:31.313Z,96762.37
2018-12-13T05:20:05.976Z,96754.34
2018-12-13T05:22:47.525Z,96748.44
2018-12-13T05:25:29.519Z,96746.52
2018-12-13T05:28:10.620Z,96742.17
2018-12-13T05:30:52.580Z,96737.22
2018-12-13T05:33:34.480Z,96741.48
2018-12-13T05:36:16.670Z,96736.88
2018-12-13T05:38:49.283Z,96733.33
2018-12-13T05:41:30.361Z,96727.52
2018-12-13T05:44:14.122Z,96725.46
2018-12-13T05:46:48.863Z,96732.57
2018-12-13T05:49:21.552Z,96730.56
2018-12-13T05:52:03.467Z,96732.88
2018-12-13T05:54:45.264Z,96735.66
2018-12-13T05:57:27.303Z,96732.81
2018-12-13T06:00:02.391Z,96727.25
2018-12-13T06:02:44.192Z,96723.16
2018-12-13T06:05:26.058Z,96727.58
2018-12-13T06:08:07.195Z,96730.66
2018-12-13T06:10:49.056Z,96730.41
2018-12-13T06:13:31.080Z,96728.81
2018-12-13T06:16:17.148Z,96728.17
2018-12-13T06:18:50.340Z,96732.48
2018-12-13T06:21:36.866Z,96732.44
2018-12-13T06:24:08.388Z,96724.37
2018-12-13T06:26:41.557Z,96720.66
2018-12-13T06:29:14.802Z,96726.97
2018-12-13T06:31:56.586Z,96730.83
2018-12-13T06:34:37.635Z,96727.26
2018-12-13T06:37:19.413Z,96724.45
2018-12-13T06:39:52.796Z,96728.52
2018-12-13T06:42:23.663Z,96723.00
2018-12-13T06:44:54.712Z,96721.22
2018-12-13T06:47:36.804Z,96717.95
2018-12-13T06:50:10.100Z,96725.30
2018-12-13T06:52:41.204Z,96722.99
2018-12-13T06:55:23.133Z,96720.47
2018-12-13T06:58:00.142Z,96731.56
2018-12-13T07:00:41.337Z,96733.28
2018-12-13T07:03:23.208Z,96727.11
2018-12-13T07:06:05.075Z,96729.17
2018-12-13T07:08:38.200Z,96735.48
2018-12-13T07:11:20.494Z,96732.72
2018-12-13T07:14:02.127Z,96725.80
2018-12-13T07:16:43.995Z,96723.37
2018-12-13T07:19:17.111Z,96727.28
2018-12-13T07:21:58.873Z,96735.58
2018-12-13T07:24:29.965Z,96729.08
2018-12-13T07:27:05.400Z,96727.70
2018-12-13T07:29:45.977Z,96730.28
2018-12-13T07:32:27.536Z,96725.63
2018-12-13T07:35:09.265Z,96730.20
2018-12-13T07:37:51.219Z,96729.74
2018-12-13T07:40:33.203Z,96734.52
2018-12-13T07:43:15.055Z,96731.78
2018-12-13T07:45:58.121Z,96721.32
2018-12-13T07:48:31.256Z,96725.99
2018-12-13T07:51:13.125Z,96722.36
2018-12-13T07:53:54.911Z,96721.41
2018-12-13T07:56:36.765Z,96726.05
2018-12-13T07:59:10.096Z,96721.66
2018-12-13T08:01:51.967Z,96721.98
2018-12-13T08:04:33.885Z,96717.95
2018-12-13T08:07:14.975Z,96713.13
2018-12-13T08:09:48.080Z,96710.03
2018-12-13T08:12:18.913Z,96712.70
2018-12-13T08:15:01.160Z,96713.42
2018-12-13T08:17:43.101Z,96714.60
2018-12-13T08:20:16.242Z,96709.57
2018-12-13T08:22:58.123Z,96710.48
2018-12-13T08:25:40.128Z,96705.06
2018-12-13T08:28:15.751Z,96706.18
2018-12-13T08:30:57.171Z,96703.26
2018-12-13T08:33:39.116Z,96699.38
2018-12-13T08:36:11.627Z,96701.63
2018-12-13T08:38:53.230Z,96703.34
2018-12-13T08:41:34.816Z,96709.22
2018-12-13T08:44:16.735Z,96700.02
2018-12-13T08:46:58.720Z,96705.81
2018-12-13T08:49:31.951Z,96702.68
2018-12-13T08:52:15.744Z,96697.47
2018-12-13T08:54:57.611Z,96697.03
2018-12-13T08:57:39.525Z,96692.56
2018-12-13T09:00:12.940Z,96689.66
2018-12-13T09:02:43.704Z,96694.47
2018-12-13T09:05:25.708Z,96690.03
2018-12-13T09:08:06.807Z,96692.00
2018-12-13T09:10:48.715Z,96688.59
2018-12-13T09:13:29.923Z,96682.38
2018-12-13T09:16:11.697Z,96692.55
2018-12-13T09:18:44.728Z,96685.69
2018-12-13T09:21:26.583Z,96683.69
2018-12-13T09:24:08.476Z,96684.74
2018-12-13T09:26:39.666Z,96678.71
2018-12-13T09:29:12.622Z,96683.73
2018-12-13T09:31:54.477Z,96682.22
2018-12-13T09:34:34.099Z,96682.46
2018-12-13T09:37:15.434Z,96676.41
2018-12-13T09:39:48.584Z,96670.61
2018-12-13T09:42:20.931Z,96675.55
2018-12-13T09:45:02.860Z,96674.98
2018-12-13T09:47:44.769Z,96672.86
2018-12-13T09:50:18.011Z,96667.41
2018-12-13T09:52:59.909Z,96665.64
2018-12-13T09:55:41.895Z,96661.48
2018-12-13T09:58:15.051Z,96662.70
2018-12-13T10:00:57.019Z,96649.72
2018-12-13T10:03:38.771Z,96646.17
2018-12-13T10:06:20.699Z,96639.84
2018-12-13T10:08:53.999Z,96637.53
2018-12-13T10:11:37.749Z,96631.00
2018-12-13T10:14:19.661Z,96633.27
2018-12-13T10:16:53.235Z,96625.58
2018-12-13T10:19:26.089Z,96626.77
2018-12-13T10:22:11.648Z,96622.43
2018-12-13T10:24:51.723Z,96618.56
2018-12-13T10:27:25.014Z,96617.78
2018-12-13T10:29:58.230Z,96611.96
2018-12-13T10:32:30.624Z,96610.25
2018-12-13T10:35:12.487Z,96606.48
2018-12-13T10:37:45.647Z,96602.45
2018-12-13T10:40:18.714Z,96602.73
2018-12-13T10:43:00.784Z,96603.16
2018-12-13T10:45:42.712Z,96600.01
2018-12-13T10:48:15.147Z,96604.48
2018-12-13T10:50:46.272Z,96591.64
2018-12-13T10:53:27.399Z,96591.08
2018-12-13T10:56:02.836Z,96590.59
2018-12-13T10:58:35.379Z,96589.95
2018-12-13T11:02:23.412Z,96590.27
2018-12-13T11:05:01.072Z,96590.88
2018-12-13T11:07:42.187Z,96584.28
2018-12-13T11:10:15.280Z,96581.74
2018-12-13T11:15:29.779Z,96575.46
2018-12-13T11:18:11.693Z,96569.27
2018-12-13T11:23:54.264Z,96569.70
2018-12-13T11:26:27.270Z,96569.37
2018-12-13T11:30:44.112Z,96563.82
2018-12-13T11:33:25.271Z,96568.63
2018-12-13T11:36:07.272Z,96562.56
2018-12-13T11:38:42.807Z,96560.91
2018-12-13T11:41:24.481Z,96561.28
2018-12-13T11:44:06.469Z,96563.32
2018-12-13T11:46:38.806Z,96556.06
2018-12-13T11:49:12.373Z,96556.48
2018-12-13T11:51:53.956Z,96552.33
2018-12-13T11:54:42.545Z,96552.20
2018-12-13T11:57:24.626Z,96551.16
2018-12-13T11:59:55.863Z,96551.05
2018-12-13T12:02:30.611Z,96553.16
2018-12-13T12:05:12.051Z,96551.16
2018-12-13T12:07:53.846Z,96556.63
2018-12-13T12:10:34.953Z,96557.39
2018-12-13T12:13:16.868Z,96553.81
2018-12-13T12:15:58.627Z,96552.75
2018-12-13T12:18:31.252Z,96548.73
2018-12-13T12:21:13.103Z,96543.39
2018-12-13T12:23:44.292Z,96550.19
2018-12-13T12:26:26.034Z,96544.72
2018-12-13T12:28:59.192Z,96543.48
2018-12-13T12:31:41.083Z,96538.14
2018-12-13T12:34:22.995Z,96543.10
2018-12-13T12:36:56.018Z,96538.13
2018-12-13T12:39:29.380Z,96536.92
2018-12-13T12:42:02.589Z,96538.36
2018-12-13T12:44:44.303Z,96535.88
2018-12-13T12:47:26.279Z,96532.30
2018-12-13T12:49:59.451Z,96532.83
2018-12-13T12:52:41.317Z,96524.77
2018-12-13T12:55:23.166Z,96524.36
2018-12-13T12:58:04.957Z,96524.59
2018-12-13T13:00:36.227Z,96524.81
2018-12-13T13:03:17.320Z,96527.22
2018-12-13T13:05:50.564Z,96527.28
2018-12-13T13:08:23.876Z,96530.89
2018-12-13T13:11:06.868Z,96537.67
2018-12-13T13:13:47.923Z,96534.12
2018-12-13T13:16:29.808Z,96536.39
2018-12-13T13:19:02.949Z,96531.03
2018-12-13T13:21:38.575Z,96533.50
2018-12-13T13:24:19.930Z,96535.88
2018-12-13T13:27:01.672Z,96533.02
2018-12-13T13:29:35.073Z,96529.82
2018-12-13T13:32:16.667Z,96534.04
2018-12-13T13:34:58.456Z,96530.63
2018-12-13T13:37:34.016Z,96535.45
2018-12-13T13:40:06.982Z,96536.69
2018-12-13T13:42:38.974Z,96538.92
2018-12-13T13:45:15.003Z,96531.06
2018-12-13T13:47:46.191Z,96528.26
2018-12-13T13:50:19.312Z,96532.63
2018-12-13T13:53:01.333Z,96532.20
2018-12-13T13:55:43.252Z,96538.87
2018-12-13T13:58:16.519Z,96530.08
2018-12-13T14:00:57.549Z,96538.24
2018-12-13T14:03:40.568Z,96542.70
2018-12-13T14:06:23.264Z,96536.94
2018-12-13T14:08:55.737Z,96535.75
2018-12-13T14:14:26.915Z,96536.38
2018-12-13T14:17:08.799Z,96543.66
2018-12-13T14:19:41.996Z,96542.08
2018-12-13T14:22:17.459Z,96535.70
2018-12-13T14:24:52.611Z,96540.20
2018-12-13T14:27:34.027Z,96539.63
2018-12-13T14:30:07.724Z,96546.00
2018-12-13T14:32:49.306Z,96544.48
2018-12-13T14:35:31.277Z,96545.80
2018-12-13T14:38:03.671Z,96540.47
2018-12-13T14:40:41.072Z,96540.68
2018-12-13T14:43:22.595Z,96547.99
2018-12-13T14:48:55.635Z,96544.70
2018-12-13T14:51:37.344Z,96541.73
2018-12-13T14:54:19.320Z,96542.34
2018-12-13T14:56:50.628Z,96544.78
2018-12-13T14:59:23.999Z,96545.34
2018-12-13T15:02:05.865Z,96550.00
2018-12-13T15:04:47.245Z,96557.38
2018-12-13T15:07:29.257Z,96558.11
2018-12-13T15:10:05.615Z,96560.48
2018-12-13T15:12:48.387Z,96561.71
2018-12-13T15:15:30.555Z,96555.13
2018-12-13T15:18:03.222Z,96554.21
2018-12-13T15:20:36.392Z,96554.41
2018-12-13T15:23:18.187Z,96557.63
2018-12-13T15:25:53.775Z,96559.38
2018-12-13T15:28:25.810Z,96568.88
2018-12-13T15:31:07.303Z,96564.75
2018-12-13T15:33:49.163Z,96565.89
2018-12-13T15:36:31.135Z,96572.22
2018-12-13T15:39:05.188Z,96578.43
2018-12-13T15:41:47.097Z,96581.24
2018-12-13T15:47:24.035Z,96589.08
2018-12-13T15:49:57.415Z,96587.70
2018-12-13T15:52:40.171Z,96583.24
2018-12-13T15:55:22.054Z,96593.39
2018-12-13T15:58:03.976Z,96586.71
2018-12-13T16:00:46.083Z,96589.69
2018-12-13T16:03:16.932Z,96590.98
2018-12-13T16:05:58.815Z,96586.63
2018-12-13T16:08:32.112Z,96583.17
2018-12-13T16:11:13.831Z,96584.58
2018-12-13T16:13:56.779Z,96586.97
2018-12-13T16:16:38.487Z,96592.22
2018-12-13T16:19:13.195Z,96597.88
2018-12-13T16:21:51.938Z,96600.05
2018-12-13T16:24:33.476Z,96598.43
2018-12-13T16:27:14.671Z,96598.99
2018-12-13T16:29:47.747Z,96600.78
2018-12-13T16:32:29.816Z,96606.24
2018-12-13T16:35:16.632Z,96604.51
2018-12-13T16:38:02.884Z,96604.81
2018-12-13T16:40:49.903Z,96594.64
2018-12-13T16:43:34.024Z,96599.80
2018-12-13T16:46:18.801Z,96607.78
2018-12-13T16:48:52.076Z,96606.16
2018-12-13T16:51:38.975Z,96607.20
2018-12-13T16:54:20.889Z,96591.88
2018-12-13T16:56:54.256Z,96586.87
2018-12-13T16:59:27.272Z,96586.78
2018-12-13T17:02:00.231Z,96593.59
2018-12-13T17:04:41.985Z,96599.13
2018-12-13T17:07:15.715Z,96591.94
2018-12-13T17:09:50.665Z,96592.42
2018-12-13T17:12:23.580Z,96592.75
2018-12-13T17:15:05.970Z,96592.25
2018-12-13T17:17:47.096Z,96600.32
2018-12-13T17:20:20.388Z,96599.37
2018-12-13T17:23:02.038Z,96600.59
2018-12-13T17:25:46.219Z,96601.61
2018-12-13T17:28:21.369Z,96600.98
2018-12-13T17:31:02.721Z,96601.67
2018-12-13T17:33:44.898Z,96592.42
2018-12-13T17:36:20.356Z,96587.01
2018-12-13T17:39:01.867Z,96590.11
2018-12-13T17:41:43.859Z,96591.94
2018-12-13T17:44:25.072Z,96588.77
2018-12-13T17:46:56.300Z,96593.40
2018-12-13T17:49:29.284Z,96603.78
2018-12-13T17:52:10.481Z,96598.50
2018-12-13T17:54:45.867Z,96603.83
2018-12-13T17:57:27.098Z,96602.23
2018-12-13T18:00:00.192Z,96605.73
2018-12-13T18:02:41.902Z,96605.03
2018-12-13T18:05:23.991Z,96605.54
2018-12-13T18:08:05.755Z,96594.42
2018-12-13T18:10:47.500Z,96589.16
2018-12-13T18:13:29.468Z,96593.66
2018-12-13T18:16:11.434Z,96601.75
2018-12-13T18:18:44.914Z,96605.95
2018-12-13T18:21:15.799Z,96605.91
2018-12-13T18:23:51.327Z,96603.49
2018-12-13T18:26:33.540Z,96601.70
2018-12-13T18:29:06.569Z,96607.55
2018-12-13T18:31:49.897Z,96599.53
2018-12-13T18:34:32.133Z,96600.52
2018-12-13T18:37:13.420Z,96597.01
2018-12-13T18:39:45.998Z,96601.37
2018-12-13T18:42:19.812Z,96601.59
2018-12-13T18:44:55.531Z,96593.56
2018-12-13T18:47:37.004Z,96585.55
2018-12-13T18:50:10.504Z,96586.81
2018-12-13T18:52:52.183Z,96597.31
2018-12-13T18:55:33.472Z,96606.70
2018-12-13T18:58:22.611Z,96605.00
2018-12-13T19:01:07.770Z,96597.08
2018-12-13T19:03:50.533Z,96601.67
2018-12-13T19:06:31.951Z,96610.83
2018-12-13T19:09:08.610Z,96616.87
2018-12-13T19:11:50.299Z,96616.56
2018-12-13T19:14:32.131Z,96617.19
2018-12-13T19:17:08.115Z,96616.05
2018-12-13T19:19:42.711Z,96617.13
2018-12-13T19:22:16.599Z,96613.99
2018-12-13T19:24:58.544Z,96612.05
2018-12-13T19:27:40.519Z,96609.22
2018-12-13T19:30:13.695Z,96614.69
2018-12-13T19:33:00.461Z,96608.16
2018-12-13T19:35:31.765Z,96608.79
2018-12-13T19:38:14.059Z,96612.73
2018-12-13T19:40:55.916Z,96623.69
2018-12-13T19:43:37.748Z,96631.89
2018-12-13T19:46:13.323Z,96636.50
2018-12-13T19:48:46.992Z,96645.52
2018-12-13T19:51:29.809Z,96641.29
2018-12-13T19:54:09.426Z,96641.41
2018-12-13T19:56:50.983Z,96634.53
2018-12-13T19:59:24.171Z,96640.59
2018-12-13T20:02:05.848Z,96646.22
2018-12-13T20:04:47.928Z,96641.38
2018-12-13T20:07:19.102Z,96643.54
2018-12-13T20:09:54.768Z,96641.98
2018-12-13T20:12:35.889Z,96641.16
2018-12-13T20:15:09.007Z,96642.09
2018-12-13T20:17:41.558Z,96648.91
2018-12-13T20:20:14.728Z,96652.30
2018-12-13T20:22:48.843Z,96655.86
2018-12-13T20:25:30.215Z,96652.91
2018-12-13T20:28:08.666Z,96657.79
2018-12-13T20:38:17.873Z,96666.50
2018-12-13T20:41:01.082Z,96672.00
2018-12-13T20:43:43.211Z,96670.72
2018-12-13T20:46:24.529Z,96664.48
2018-12-13T20:49:01.329Z,96671.45
2018-12-13T20:51:34.518Z,96676.52
2018-12-13T20:54:11.739Z,96677.64
2018-12-13T20:56:54.594Z,96682.58
2018-12-13T20:59:27.049Z,96676.24
2018-12-13T21:02:02.896Z,96674.51
2018-12-13T21:04:45.002Z,96676.33
2018-12-13T21:07:31.982Z,96678.05
2018-12-13T21:10:09.908Z,96686.06
2018-12-13T21:12:51.123Z,96679.72
2018-12-13T21:15:26.733Z,96679.03
2018-12-13T21:18:08.647Z,96678.13
2018-12-13T21:20:50.168Z,96690.71
2018-12-13T21:23:34.814Z,96689.80
2018-12-13T21:26:07.562Z,96686.86
2018-12-13T21:28:43.047Z,96686.73
2018-12-13T21:31:28.293Z,96687.23
2018-12-13T21:34:10.384Z,96687.56
2018-12-13T21:41:54.815Z,96685.63
2018-12-13T21:44:34.626Z,96687.84
2018-12-13T21:47:24.692Z,96695.06
2018-12-13T21:50:11.508Z,96688.55
2018-12-13T21:52:57.615Z,96687.52
2018-12-13T21:55:36.085Z,96683.16
2018-12-13T21:58:19.127Z,96686.32
2018-12-13T22:00:54.754Z,96687.02
2018-12-13T22:03:36.743Z,96686.09
2018-12-13T22:06:20.941Z,96696.13
2018-12-13T22:08:55.319Z,96689.50
2018-12-13T22:11:38.105Z,96695.38
2018-12-13T22:14:20.203Z,96701.45
2018-12-13T22:17:02.251Z,96700.03
2018-12-13T22:19:37.957Z,96697.94
2018-12-13T22:22:25.841Z,96697.14
2018-12-13T22:25:07.624Z,96697.87
2018-12-13T22:27:51.907Z,96701.92
2018-12-13T22:30:32.268Z,96702.14
2018-12-13T22:33:19.128Z,96695.38
2018-12-13T22:38:55.953Z,96692.02
2018-12-13T22:46:35.948Z,96698.73
2018-12-13T22:49:19.149Z,96704.66
2018-12-13T22:51:56.028Z,96704.75
2018-12-13T22:54:48.016Z,96704.00
2018-12-13T23:00:34.002Z,96723.91
2018-12-13T23:03:15.989Z,96717.15
2018-12-13T23:05:57.865Z,96716.29
2018-12-13T23:08:30.314Z,96722.10
2018-12-13T23:11:12.389Z,96724.48
2018-12-13T23:13:45.300Z,96724.37
2018-12-13T23:16:27.433Z,96726.25
2018-12-13T23:18:59.774Z,96727.57
2018-12-13T23:21:41.812Z,96723.76
2018-12-13T23:24:23.624Z,96724.52
2018-12-13T23:26:58.660Z,96726.20
2018-12-13T23:29:34.184Z,96728.48
2018-12-13T23:32:15.839Z,96725.73
2018-12-13T23:34:57.636Z,96732.25
2018-12-13T23:37:33.306Z,96724.08
2018-12-13T23:40:06.169Z,96729.45
2018-12-13T23:42:47.896Z,96732.44
2018-12-13T23:45:29.865Z,96737.56
2018-12-13T23:48:02.295Z,96735.89
2018-12-13T23:50:44.170Z,96729.81
2018-12-13T23:53:26.627Z,96733.80
2018-12-13T23:56:08.079Z,96730.56
2018-12-13T23:58:44.163Z,96729.22
